createdAt,value
2019-06-20T00:01:23.328Z,5.70
2019-06-20T00:03:51.773Z,4.47
2019-06-20T00:06:20.216Z,3.30
2019-06-20T00:08:48.770Z,4.17
2019-06-20T00:11:17.235Z,4.03
2019-06-20T00:13:45.682Z,4.67
2019-06-20T00:16:14.141Z,4.63
2019-06-20T00:18:42.571Z,5.03
2019-06-20T00:21:11.013Z,3.70
2019-06-20T00:23:39.455Z,3.27
2019-06-20T00:26:08.358Z,4.87
2019-06-20T00:28:36.792Z,3.43
2019-06-20T00:31:05.252Z,5.37
2019-06-20T00:33:33.739Z,5.03
2019-06-20T00:36:02.269Z,2.90
2019-06-20T00:38:30.786Z,4.83
2019-06-20T00:40:59.306Z,6.63
2019-06-20T00:43:27.746Z,6.57
2019-06-20T00:45:56.227Z,4.50
2019-06-20T00:48:24.752Z,5.13
2019-06-20T00:50:53.246Z,4.80
2019-06-20T00:53:21.697Z,4.00
2019-06-20T00:55:50.176Z,5.00
2019-06-20T00:58:18.618Z,4.10
2019-06-20T01:00:47.070Z,5.50
2019-06-20T01:03:15.522Z,3.80
2019-06-20T01:05:44.014Z,4.33
2019-06-20T01:08:12.480Z,3.83
2019-06-20T01:10:40.946Z,7.90
2019-06-20T01:13:09.469Z,6.40
2019-06-20T01:15:38.048Z,5.47
2019-06-20T01:18:06.515Z,4.47
2019-06-20T01:20:34.971Z,4.07
2019-06-20T01:23:03.483Z,6.33
2019-06-20T01:25:43.003Z,7.73
2019-06-20T01:28:11.455Z,7.40
2019-06-20T01:30:41.432Z,5.90
2019-06-20T01:33:09.926Z,6.00
2019-06-20T01:35:38.465Z,6.53
2019-06-20T01:38:06.990Z,6.53
2019-06-20T01:40:35.438Z,4.93
2019-06-20T01:43:03.883Z,4.80
2019-06-20T01:45:32.330Z,6.37
2019-06-20T01:48:00.867Z,5.33
2019-06-20T01:50:29.388Z,7.70
2019-06-20T01:52:57.899Z,7.53
2019-06-20T01:55:26.324Z,6.20
2019-06-20T01:57:54.766Z,7.63
2019-06-20T02:00:38.674Z,4.83
2019-06-20T02:03:07.122Z,6.33
2019-06-20T02:05:35.645Z,6.00
2019-06-20T02:08:04.182Z,7.07
2019-06-20T02:10:32.689Z,6.73
2019-06-20T02:13:01.174Z,6.90
2019-06-20T02:15:29.724Z,7.63
2019-06-20T02:17:58.169Z,6.07
2019-06-20T02:20:32.304Z,7.00
2019-06-20T02:23:00.758Z,8.03
2019-06-20T02:25:29.250Z,7.50
2019-06-20T02:27:57.839Z,8.43
2019-06-20T02:30:26.285Z,8.43
2019-06-20T02:32:54.738Z,7.77
2019-06-20T02:35:26.284Z,7.73
2019-06-20T02:37:54.787Z,6.87
2019-06-20T02:40:23.326Z,7.23
2019-06-20T02:42:51.766Z,9.63
2019-06-20T02:45:20.372Z,9.03
2019-06-20T02:47:48.820Z,10.03
2019-06-20T02:50:17.894Z,9.97
2019-06-20T02:52:46.411Z,9.93
2019-06-20T02:55:15.020Z,8.73
2019-06-20T02:57:43.542Z,11.83
2019-06-20T03:00:12.693Z,9.97
2019-06-20T03:02:41.224Z,7.03
2019-06-20T03:05:12.134Z,7.70
2019-06-20T03:07:40.656Z,8.43
2019-06-20T03:10:10.050Z,10.03
2019-06-20T03:12:38.488Z,6.53
2019-06-20T03:15:07.287Z,6.90
2019-06-20T03:17:35.721Z,6.63
2019-06-20T03:20:05.322Z,7.43
2019-06-20T03:22:33.742Z,8.40
2019-06-20T03:25:02.203Z,7.10
2019-06-20T03:27:30.743Z,6.00
2019-06-20T03:29:59.294Z,8.90
2019-06-20T03:32:27.884Z,8.23
2019-06-20T03:34:56.510Z,10.57
2019-06-20T03:37:25.323Z,6.50
2019-06-20T03:39:53.751Z,7.87
2019-06-20T03:42:22.188Z,9.50
2019-06-20T03:45:01.550Z,5.13
2019-06-20T03:47:20.790Z,5.60
2019-06-20T03:49:49.326Z,5.47
2019-06-20T03:52:17.790Z,7.87
2019-06-20T03:54:46.250Z,5.90
2019-06-20T03:57:14.712Z,6.93
2019-06-20T03:59:43.155Z,5.77
2019-06-20T04:02:11.666Z,6.10
2019-06-20T04:04:40.118Z,7.33
2019-06-20T04:07:08.575Z,5.43
2019-06-20T04:09:37.046Z,6.20
2019-06-20T04:12:05.472Z,4.50
2019-06-20T04:14:33.920Z,5.13
2019-06-20T04:17:02.389Z,6.40
2019-06-20T04:19:30.853Z,4.60
2019-06-20T04:21:59.294Z,6.10
2019-06-20T04:24:28.142Z,7.07
2019-06-20T04:26:56.742Z,4.67
2019-06-20T04:29:25.206Z,5.67
2019-06-20T04:31:53.677Z,6.50
2019-06-20T04:34:22.160Z,6.80
2019-06-20T04:36:50.650Z,7.93
2019-06-20T04:39:19.796Z,7.03
2019-06-20T04:41:48.447Z,4.67
2019-06-20T04:44:16.900Z,4.03
2019-06-20T04:46:47.007Z,6.00
2019-06-20T04:49:15.467Z,6.37
2019-06-20T04:51:44.038Z,3.47
2019-06-20T04:54:12.524Z,5.50
2019-06-20T04:56:41.051Z,4.60
2019-06-20T04:59:09.500Z,4.03
2019-06-20T05:01:37.969Z,6.57
2019-06-20T05:04:06.493Z,5.67
2019-06-20T05:06:35.029Z,5.07
2019-06-20T05:09:04.434Z,5.97
2019-06-20T05:11:32.966Z,5.80
2019-06-20T05:14:01.442Z,3.15
2019-06-20T05:16:30.022Z,7.80
2019-06-20T05:18:58.465Z,7.30
2019-06-20T05:21:26.994Z,5.72
2019-06-20T05:23:55.488Z,5.40
2019-06-20T05:26:23.962Z,4.78
2019-06-20T05:28:52.435Z,6.90
2019-06-20T05:31:20.978Z,6.65
2019-06-20T05:33:49.514Z,5.25
2019-06-20T05:36:17.946Z,8.60
2019-06-20T05:38:46.399Z,6.75
2019-06-20T05:41:14.993Z,8.38
2019-06-20T05:43:43.709Z,9.70
2019-06-20T05:46:12.277Z,6.40
2019-06-20T05:48:40.759Z,5.40
2019-06-20T05:51:09.516Z,5.95
2019-06-20T05:53:39.049Z,6.05
2019-06-20T05:56:08.678Z,4.55
2019-06-20T05:58:37.380Z,6.45
2019-06-20T06:01:05.864Z,5.37
2019-06-20T06:03:34.306Z,6.12
2019-06-20T06:06:02.896Z,8.15
2019-06-20T06:08:32.333Z,6.12
2019-06-20T06:11:00.814Z,6.00
2019-06-20T06:13:29.259Z,9.63
2019-06-20T06:15:57.826Z,5.60
2019-06-20T06:18:26.357Z,5.40
2019-06-20T06:20:54.949Z,5.08
2019-06-20T06:23:23.457Z,5.58
2019-06-20T06:25:52.048Z,5.42
2019-06-20T06:28:20.755Z,7.22
2019-06-20T06:30:49.212Z,7.50
2019-06-20T06:33:17.705Z,5.72
2019-06-20T06:35:46.261Z,6.70
2019-06-20T06:38:14.787Z,7.65
2019-06-20T06:40:43.295Z,9.25
2019-06-20T06:43:11.751Z,9.20
2019-06-20T06:45:40.265Z,8.65
2019-06-20T06:48:08.809Z,9.53
2019-06-20T06:50:37.478Z,7.80
2019-06-20T06:53:05.995Z,9.15
2019-06-20T06:55:34.508Z,7.42
2019-06-20T06:58:02.972Z,11.12
2019-06-20T07:00:31.430Z,8.87
2019-06-20T07:02:59.887Z,8.97
2019-06-20T07:05:28.344Z,9.77
2019-06-20T07:07:56.986Z,10.83
2019-06-20T07:10:25.707Z,8.73
2019-06-20T07:12:54.218Z,8.33
2019-06-20T07:15:23.000Z,8.17
2019-06-20T07:17:51.470Z,9.30
2019-06-20T07:20:20.668Z,10.73
2019-06-20T07:22:49.178Z,9.33
2019-06-20T07:25:17.832Z,9.87
2019-06-20T07:27:46.290Z,10.23
2019-06-20T07:30:15.203Z,10.87
2019-06-20T07:32:54.918Z,11.77
2019-06-20T07:35:23.404Z,11.93
2019-06-20T07:37:51.921Z,11.20
2019-06-20T07:40:20.448Z,9.00
2019-06-20T07:42:48.982Z,11.87
2019-06-20T07:45:19.419Z,13.10
2019-06-20T07:47:57.928Z,11.20
2019-06-20T07:50:26.805Z,13.23
2019-06-20T07:53:02.050Z,11.90
2019-06-20T07:55:25.577Z,19.07
2019-06-20T07:57:54.352Z,14.43
2019-06-20T08:00:23.154Z,15.00
2019-06-20T08:02:51.830Z,15.27
2019-06-20T08:05:21.421Z,16.57
2019-06-20T08:07:49.908Z,15.83
2019-06-20T08:10:18.789Z,14.07
2019-06-20T08:12:47.344Z,13.90
2019-06-20T08:18:05.096Z,13.10
2019-06-20T08:20:33.612Z,16.25
2019-06-20T08:23:02.144Z,20.25
2019-06-20T08:25:30.607Z,18.92
2019-06-20T08:28:00.690Z,20.25
2019-06-20T08:30:31.719Z,17.90
2019-06-20T08:33:03.583Z,17.73
2019-06-20T08:35:31.726Z,20.10
2019-06-20T08:38:01.219Z,20.33
2019-06-20T08:40:33.669Z,21.87
2019-06-20T08:43:02.355Z,22.20
2019-06-20T08:45:33.264Z,25.83
2019-06-20T08:48:02.617Z,22.50
2019-06-20T08:50:31.448Z,22.20
2019-06-20T08:53:01.442Z,22.07
2019-06-20T08:55:30.385Z,23.67
2019-06-20T08:57:59.598Z,24.87
2019-06-20T09:00:30.105Z,27.73
2019-06-20T09:02:58.796Z,26.57
2019-06-20T09:05:30.501Z,26.77
2019-06-20T09:10:37.804Z,29.57
2019-06-20T09:13:07.133Z,30.30
2019-06-20T09:15:35.782Z,29.13
2019-06-20T09:18:05.084Z,32.63
2019-06-20T09:20:33.661Z,25.57
2019-06-20T09:23:03.323Z,26.33
2019-06-20T09:25:31.928Z,22.45
2019-06-20T09:28:02.526Z,24.57
2019-06-20T09:30:31.419Z,19.92
2019-06-20T09:33:00.023Z,23.05
2019-06-20T09:35:29.328Z,21.42
2019-06-20T09:37:59.262Z,29.80
2019-06-20T09:40:28.616Z,28.60
2019-06-20T09:42:58.668Z,27.10
2019-06-20T09:45:27.573Z,25.23
2019-06-20T09:47:56.120Z,23.40
2019-06-20T09:50:24.926Z,27.50
2019-06-20T09:52:54.811Z,23.67
2019-06-20T09:55:23.867Z,24.50
2019-06-20T09:57:53.596Z,22.10
2019-06-20T10:00:27.315Z,21.93
2019-06-20T10:02:57.649Z,24.63
2019-06-20T10:05:26.142Z,21.23
2019-06-20T10:07:54.704Z,23.83
2019-06-20T10:10:30.425Z,22.73
2019-06-20T10:12:59.181Z,22.97
2019-06-20T10:15:32.644Z,18.40
2019-06-20T10:18:01.161Z,22.97
2019-06-20T10:20:29.831Z,20.07
2019-06-20T10:22:58.356Z,17.33
2019-06-20T10:25:26.938Z,15.80
2019-06-20T10:27:55.457Z,16.23
2019-06-20T10:30:25.069Z,16.43
2019-06-20T10:32:53.582Z,14.37
2019-06-20T10:35:22.251Z,15.57
2019-06-20T10:37:50.769Z,15.73
2019-06-20T10:40:20.278Z,17.37
2019-06-20T10:42:50.141Z,11.95
2019-06-20T10:45:20.744Z,13.45
2019-06-20T10:47:50.515Z,14.25
2019-06-20T10:50:19.482Z,14.63
2019-06-20T10:52:48.288Z,11.28
2019-06-20T10:55:19.745Z,15.00
2019-06-20T10:57:49.851Z,13.68
2019-06-20T11:00:30.151Z,12.95
2019-06-20T11:02:51.220Z,15.80
2019-06-20T11:05:21.239Z,12.90
2019-06-20T11:07:50.360Z,14.80
2019-06-20T11:10:20.126Z,12.07
2019-06-20T11:12:54.966Z,14.80
2019-06-20T11:15:20.983Z,15.23
2019-06-20T11:17:49.549Z,15.57
2019-06-20T11:20:18.857Z,16.30
2019-06-20T11:22:47.763Z,21.27
2019-06-20T11:25:19.311Z,20.40
2019-06-20T11:27:47.799Z,16.07
2019-06-20T11:30:22.354Z,18.60
2019-06-20T11:32:50.882Z,18.20
2019-06-20T11:35:19.537Z,18.37
2019-06-20T11:37:48.019Z,18.83
2019-06-20T11:40:16.962Z,18.33
2019-06-20T11:42:46.743Z,19.00
2019-06-20T11:45:17.577Z,18.77
2019-06-20T11:47:47.331Z,18.30
2019-06-20T11:50:17.646Z,20.27
2019-06-20T11:52:46.236Z,17.87
2019-06-20T11:55:17.256Z,19.63
2019-06-20T11:57:45.781Z,20.43
2019-06-20T12:00:15.175Z,24.40
2019-06-20T12:02:44.157Z,20.25
2019-06-20T12:05:13.964Z,21.37
2019-06-20T12:07:43.825Z,16.17
2019-06-20T12:10:13.487Z,14.73
2019-06-20T12:12:42.604Z,18.37
2019-06-20T12:15:16.739Z,16.50
2019-06-20T12:17:45.332Z,17.57
2019-06-20T12:20:16.184Z,13.43
2019-06-20T12:22:45.047Z,13.43
2019-06-20T12:25:14.219Z,13.70
2019-06-20T12:27:43.123Z,14.97
2019-06-20T12:30:14.002Z,17.00
2019-06-20T12:32:42.617Z,15.80
2019-06-20T12:35:12.438Z,12.60
2019-06-20T12:37:40.972Z,8.93
2019-06-20T12:40:10.159Z,13.03
2019-06-20T12:42:39.834Z,11.83
2019-06-20T12:45:10.664Z,12.17
2019-06-20T12:47:40.206Z,8.08
2019-06-20T12:50:09.753Z,8.27
2019-06-20T12:52:39.551Z,8.77
2019-06-20T12:55:09.226Z,7.47
2019-06-20T12:57:39.120Z,7.87
2019-06-20T13:00:10.297Z,7.70
2019-06-20T13:02:40.410Z,7.70
2019-06-20T13:05:10.005Z,8.70
2019-06-20T13:07:39.249Z,9.43
2019-06-20T13:10:09.186Z,8.53
2019-06-20T13:12:37.663Z,9.70
2019-06-20T13:15:07.785Z,8.70
2019-06-20T13:17:36.300Z,8.63
2019-06-20T13:20:07.869Z,10.87
2019-06-20T13:22:37.802Z,10.20
2019-06-20T13:25:07.563Z,12.13
2019-06-20T13:27:36.126Z,14.37
2019-06-20T13:30:10.018Z,11.80
2019-06-20T13:32:40.267Z,14.43
2019-06-20T13:35:09.627Z,13.93
2019-06-20T13:37:38.231Z,12.73
2019-06-20T13:40:12.045Z,11.15
2019-06-20T13:42:42.125Z,17.40
2019-06-20T13:45:18.842Z,13.47
2019-06-20T13:47:47.806Z,16.70
2019-06-20T13:50:17.255Z,15.20
2019-06-20T13:52:47.203Z,13.77
2019-06-20T13:55:16.112Z,13.40
2019-06-20T13:57:45.331Z,13.83
2019-06-20T14:00:17.118Z,15.13
2019-06-20T14:02:47.026Z,12.17
2019-06-20T14:05:16.098Z,14.47
2019-06-20T14:07:48.312Z,15.03
2019-06-20T14:10:15.667Z,17.33
2019-06-20T14:12:44.733Z,12.60
2019-06-20T14:15:14.815Z,14.60
2019-06-20T14:17:43.602Z,16.13
2019-06-20T14:20:15.357Z,19.73
2019-06-20T14:22:45.118Z,17.47
2019-06-20T14:25:14.169Z,17.40
2019-06-20T14:27:43.966Z,15.13
2019-06-20T14:33:10.829Z,15.57
2019-06-20T14:35:39.303Z,17.77
2019-06-20T14:38:07.853Z,16.43
2019-06-20T14:40:36.363Z,17.97
2019-06-20T14:43:04.908Z,16.23
2019-06-20T14:45:33.440Z,15.17
2019-06-20T14:48:01.947Z,16.13
2019-06-20T14:50:30.408Z,17.57
2019-06-20T14:52:58.871Z,16.30
2019-06-20T14:55:27.466Z,16.87
2019-06-20T14:57:56.084Z,18.00
2019-06-20T15:00:25.376Z,12.20
2019-06-20T15:02:57.845Z,15.00
2019-06-20T15:05:24.140Z,14.13
2019-06-20T15:07:53.930Z,11.83
2019-06-20T15:10:23.103Z,14.60
2019-06-20T15:12:52.328Z,15.20
2019-06-20T15:15:22.007Z,14.17
2019-06-20T15:17:53.575Z,15.47
2019-06-20T15:20:21.205Z,15.93
2019-06-20T15:22:50.866Z,13.57
2019-06-20T15:25:20.061Z,14.20
2019-06-20T15:27:50.258Z,8.83
2019-06-20T15:30:18.838Z,11.40
2019-06-20T15:33:01.114Z,12.33
2019-06-20T15:35:17.603Z,8.40
2019-06-20T15:37:47.677Z,12.13
2019-06-20T15:40:17.120Z,8.47
2019-06-20T15:42:45.576Z,9.90
2019-06-20T15:45:15.577Z,9.40
2019-06-20T15:47:44.039Z,9.40
2019-06-20T15:50:13.433Z,8.70
2019-06-20T15:52:41.886Z,7.57
2019-06-20T15:55:10.925Z,9.43
2019-06-20T15:57:39.753Z,7.83
2019-06-20T16:00:10.465Z,9.67
2019-06-20T16:02:39.039Z,8.07
2019-06-20T16:05:08.343Z,11.10
2019-06-20T16:07:37.036Z,12.23
2019-06-20T16:10:07.223Z,11.30
2019-06-20T16:12:37.956Z,10.93
2019-06-20T16:15:08.670Z,8.33
2019-06-20T16:17:38.096Z,9.63
2019-06-20T16:20:08.484Z,10.17
2019-06-20T16:22:37.072Z,8.30
2019-06-20T16:25:07.119Z,10.03
2019-06-20T16:27:35.654Z,10.77
2019-06-20T16:30:07.002Z,9.97
2019-06-20T16:32:35.514Z,11.93
2019-06-20T16:35:07.178Z,9.23
2019-06-20T16:37:35.769Z,14.37
2019-06-20T16:40:07.897Z,9.13
2019-06-20T16:42:36.407Z,11.37
2019-06-20T16:45:09.874Z,13.20
2019-06-20T16:47:38.953Z,10.43
2019-06-20T16:50:08.212Z,12.00
2019-06-20T16:52:36.839Z,11.40
2019-06-20T16:55:06.300Z,11.60
2019-06-20T16:57:34.933Z,10.20
2019-06-20T17:00:05.727Z,10.87
2019-06-20T17:02:34.277Z,8.57
2019-06-20T17:05:03.443Z,10.80
2019-06-20T17:07:32.002Z,11.33
2019-06-20T17:10:00.467Z,11.03
2019-06-20T17:12:28.934Z,14.57
2019-06-20T17:14:57.451Z,9.50
2019-06-20T17:17:26.013Z,11.90
2019-06-20T17:19:54.561Z,11.33
2019-06-20T17:22:23.012Z,10.57
2019-06-20T17:24:51.530Z,8.53
2019-06-20T17:27:20.440Z,12.97
2019-06-20T17:29:49.051Z,9.47
2019-06-20T17:32:17.943Z,10.90
2019-06-20T17:34:46.450Z,12.57
2019-06-20T17:37:14.995Z,11.07
2019-06-20T17:39:43.441Z,9.10
2019-06-20T17:42:11.994Z,11.50
2019-06-20T17:44:40.501Z,9.77
2019-06-20T17:47:08.987Z,7.73
2019-06-20T17:49:37.434Z,8.27
2019-06-20T17:52:05.913Z,10.63
2019-06-20T17:54:34.452Z,10.73
2019-06-20T17:57:03.090Z,6.43
2019-06-20T17:59:31.854Z,10.73
2019-06-20T18:02:00.416Z,9.43
2019-06-20T18:04:28.919Z,9.57
2019-06-20T18:06:57.391Z,7.10
2019-06-20T18:09:25.829Z,9.87
2019-06-20T18:11:54.313Z,7.43
2019-06-20T18:14:23.073Z,8.17
2019-06-20T18:16:51.580Z,9.77
2019-06-20T18:19:20.020Z,11.37
2019-06-20T18:21:48.678Z,8.33
2019-06-20T18:24:17.230Z,11.03
2019-06-20T18:26:45.685Z,8.83
2019-06-20T18:29:14.120Z,11.03
2019-06-20T18:31:42.627Z,8.87
2019-06-20T18:34:11.113Z,8.43
2019-06-20T18:36:42.696Z,8.70
2019-06-20T18:39:09.986Z,7.87
2019-06-20T18:41:38.435Z,7.37
2019-06-20T18:44:07.029Z,9.60
2019-06-20T18:46:35.540Z,8.97
2019-06-20T18:49:04.124Z,7.90
2019-06-20T18:51:32.739Z,11.90
2019-06-20T18:54:01.227Z,10.50
2019-06-20T18:56:31.060Z,9.10
2019-06-20T18:58:59.573Z,8.63
2019-06-20T19:01:28.039Z,9.70
2019-06-20T19:03:56.515Z,8.33
2019-06-20T19:06:35.433Z,10.23
2019-06-20T19:08:55.323Z,10.37
2019-06-20T19:11:23.921Z,8.97
2019-06-20T19:13:52.434Z,9.47
2019-06-20T19:16:21.205Z,10.53
2019-06-20T19:18:49.739Z,11.07
2019-06-20T19:21:18.199Z,11.27
2019-06-20T19:23:47.527Z,11.67
2019-06-20T19:26:15.999Z,10.87
2019-06-20T19:28:45.356Z,8.80
2019-06-20T19:31:14.025Z,9.17
2019-06-20T19:33:42.657Z,8.97
2019-06-20T19:36:11.208Z,8.43
2019-06-20T19:38:39.749Z,9.07
2019-06-20T19:41:08.211Z,8.27
2019-06-20T19:43:36.872Z,8.53
2019-06-20T19:46:05.383Z,7.77
2019-06-20T19:48:36.724Z,7.87
2019-06-20T19:51:04.562Z,9.80
2019-06-20T19:53:33.314Z,10.63
2019-06-20T19:56:01.833Z,7.90
2019-06-20T19:58:30.373Z,10.27
2019-06-20T20:00:58.869Z,9.10
2019-06-20T20:03:27.398Z,10.13
2019-06-20T20:05:58.310Z,11.33
2019-06-20T20:08:26.944Z,8.97
2019-06-20T20:10:55.549Z,9.73
2019-06-20T20:13:24.126Z,11.20
2019-06-20T20:15:53.712Z,14.00
2019-06-20T20:18:23.607Z,10.67
2019-06-20T20:20:52.053Z,9.97
2019-06-20T20:23:20.558Z,7.80
2019-06-20T20:25:49.056Z,7.27
2019-06-20T20:28:17.601Z,9.87
2019-06-20T20:30:46.157Z,8.83
2019-06-20T20:33:14.667Z,9.07
2019-06-20T20:35:43.290Z,8.47
2019-06-20T20:38:11.953Z,10.20
2019-06-20T20:40:47.183Z,10.80
2019-06-20T20:43:15.877Z,7.53
2019-06-20T20:45:44.493Z,8.70
2019-06-20T20:48:13.047Z,11.23
2019-06-20T20:50:44.346Z,11.03
2019-06-20T20:53:12.820Z,10.77
2019-06-20T20:55:41.336Z,9.97
2019-06-20T20:58:09.909Z,12.07
2019-06-20T21:00:44.205Z,10.57
2019-06-20T21:03:12.709Z,13.57
2019-06-20T21:05:50.999Z,12.70
2019-06-20T21:08:11.516Z,10.57
2019-06-20T21:10:40.174Z,10.90
2019-06-20T21:13:08.690Z,12.00
2019-06-20T21:15:37.142Z,10.40
2019-06-20T21:18:06.873Z,11.27
2019-06-20T21:20:35.499Z,11.73
2019-06-20T21:23:04.289Z,10.83
2019-06-20T21:25:32.827Z,12.17
2019-06-20T21:28:01.409Z,12.27
2019-06-20T21:30:30.305Z,14.87
2019-06-20T21:33:00.836Z,15.57
2019-06-20T21:35:29.398Z,12.20
2019-06-20T21:37:58.146Z,17.97
2019-06-20T21:40:26.691Z,13.33
2019-06-20T21:42:56.944Z,12.10
2019-06-20T21:45:25.570Z,11.13
2019-06-20T21:47:54.188Z,12.17
2019-06-20T21:50:22.703Z,11.07
2019-06-20T21:52:51.222Z,13.57
2019-06-20T21:55:19.807Z,14.27
2019-06-20T21:57:48.460Z,10.63
2019-06-20T22:00:42.775Z,16.27
2019-06-20T22:03:11.800Z,11.07
2019-06-20T22:05:40.705Z,12.10
2019-06-20T22:08:09.397Z,16.07
2019-06-20T22:10:37.930Z,13.67
2019-06-20T22:13:06.480Z,13.93
2019-06-20T22:15:34.923Z,13.23
2019-06-20T22:18:03.383Z,15.10
2019-06-20T22:20:33.523Z,14.20
2019-06-20T22:23:01.983Z,15.63
2019-06-20T22:25:30.593Z,15.03
2019-06-20T22:27:59.131Z,15.17
2019-06-20T22:30:42.959Z,15.83
2019-06-20T22:33:11.425Z,20.30
2019-06-20T22:35:39.928Z,18.03
2019-06-20T22:38:08.417Z,18.27
2019-06-20T22:40:36.846Z,19.13
2019-06-20T22:43:05.374Z,17.97
2019-06-20T22:45:33.897Z,17.97
2019-06-20T22:48:02.685Z,17.73
2019-06-20T22:50:31.155Z,18.27
2019-06-20T22:52:59.612Z,16.30
2019-06-20T22:55:28.077Z,18.50
2019-06-20T22:57:56.563Z,17.53
2019-06-20T23:00:25.243Z,15.47
2019-06-20T23:02:53.685Z,16.20
2019-06-20T23:05:22.140Z,14.87
2019-06-20T23:07:50.624Z,21.23
2019-06-20T23:10:19.210Z,17.50
2019-06-20T23:12:47.693Z,21.10
2019-06-20T23:15:17.688Z,17.97
2019-06-20T23:17:46.168Z,18.87
2019-06-20T23:20:14.969Z,13.30
2019-06-20T23:22:43.421Z,15.50
2019-06-20T23:25:12.328Z,18.53
2019-06-20T23:27:40.775Z,21.20
2019-06-20T23:30:10.487Z,16.80
2019-06-20T23:32:39.009Z,17.50
2019-06-20T23:35:07.908Z,19.57
2019-06-20T23:37:36.571Z,15.00
2019-06-20T23:40:07.010Z,14.17
2019-06-20T23:42:35.454Z,18.33
2019-06-20T23:45:06.279Z,16.57
2019-06-20T23:47:34.793Z,25.93
2019-06-20T23:50:09.643Z,20.97
2019-06-20T23:52:39.817Z,17.97
2019-06-20T23:55:08.341Z,16.27
2019-06-20T23:57:36.795Z,15.23
